Time;durP1;ratioP1;P1;durP2;ratioP2;P2;SDS_P1;SDS_P2;PMS_P1;PMS_P2;Temp;Humidity;BMP_temperature;BMP_pressure;BME280_temperature;BME280_humidity;BME280_pressure;Samples;Min_cycle;Max_cycle;Signal;HPM_P1;HPM_P2
2022/10/21 00:02:04;;;;;;;28.00;19.33;;;12.30;99.90;;;;;;5051350;28;20116;-62
2022/10/21 00:04:31;;;;;;;27.90;20.52;;;12.20;99.90;;;;;;5049579;28;20037;-62
2022/10/21 00:06:57;;;;;;;27.05;20.50;;;12.20;99.90;;;;;;5050395;28;20037;-64
2022/10/21 00:09:23;;;;;;;26.60;20.30;;;12.30;99.90;;;;;;5049805;28;20307;-62
2022/10/21 00:11:48;;;;;;;25.48;20.20;;;12.30;99.90;;;;;;5049481;28;20037;-62
2022/10/21 00:14:14;;;;;;;29.15;20.40;;;12.30;99.90;;;;;;5049193;28;20402;-63
2022/10/21 00:16:40;;;;;;;26.98;19.88;;;12.30;99.90;;;;;;5049910;28;20138;-63
2022/10/21 00:19:06;;;;;;;28.35;20.50;;;12.30;99.90;;;;;;5050027;28;20032;-62
2022/10/21 00:21:31;;;;;;;30.10;20.02;;;12.30;99.90;;;;;;5049676;28;20048;-62
2022/10/21 00:23:57;;;;;;;27.95;20.05;;;12.30;99.90;;;;;;5049657;28;20041;-62
2022/10/21 00:26:23;;;;;;;26.73;19.63;;;12.30;99.90;;;;;;5050006;28;20116;-62
2022/10/21 00:28:52;;;;;;;24.95;19.55;;;12.30;99.90;;;;;;5049516;28;20076;-63
2022/10/21 00:31:18;;;;;;;26.23;19.50;;;12.30;99.90;;;;;;5049896;28;20040;-63
2022/10/21 00:33:43;;;;;;;25.27;20.15;;;12.30;99.90;;;;;;5049799;28;20037;-65
2022/10/21 00:36:13;;;;;;;27.90;21.02;;;12.30;99.90;;;;;;5050027;28;20120;-62
2022/10/21 00:38:39;;;;;;;28.65;20.83;;;12.30;99.90;;;;;;5049425;28;20037;-62
2022/10/21 00:41:05;;;;;;;24.45;20.02;;;12.30;99.90;;;;;;5049206;28;20030;-63
2022/10/21 00:43:31;;;;;;;28.92;21.00;;;12.30;99.90;;;;;;5049585;28;20049;-63
2022/10/21 00:46:01;;;;;;;28.08;20.10;;;12.30;99.90;;;;;;5049879;28;20033;-63
2022/10/21 00:48:41;;;;;;;25.17;20.63;;;12.30;99.90;;;;;;5049564;28;20339;-62
2022/10/21 00:51:09;;;;;;;28.92;20.25;;;12.30;99.90;;;;;;5049236;28;20044;-64
2022/10/21 00:53:38;;;;;;;27.60;21.90;;;12.40;99.90;;;;;;5049329;28;20037;-62
2022/10/21 00:56:11;;;;;;;28.38;21.02;;;12.40;99.90;;;;;;5049598;28;20120;-63
2022/10/21 00:58:36;;;;;;;29.00;21.25;;;12.40;99.90;;;;;;5050638;28;20088;-63
2022/10/21 01:01:05;;;;;;;25.83;20.92;;;12.40;99.90;;;;;;5053074;28;20056;-64
2022/10/21 01:03:31;;;;;;;28.52;20.38;;;12.40;99.90;;;;;;5053119;28;20623;-62
2022/10/21 01:06:01;;;;;;;31.80;22.73;;;12.30;99.90;;;;;;5053329;28;20032;-62
2022/10/21 01:08:27;;;;;;;31.55;23.25;;;12.40;99.90;;;;;;5053185;28;20045;-63
2022/10/21 01:10:53;;;;;;;30.38;23.13;;;12.30;99.90;;;;;;5052348;28;20048;-61
2022/10/21 01:13:31;;;;;;;32.80;24.83;;;12.30;99.90;;;;;;5052485;28;20033;-61
2022/10/21 01:16:02;;;;;;;33.83;23.80;;;12.40;99.90;;;;;;5053050;28;20041;-62
2022/10/21 01:18:42;;;;;;;31.30;23.73;;;12.40;99.90;;;;;;5052844;28;20490;-63
2022/10/21 01:21:19;;;;;;;31.50;23.83;;;12.40;99.90;;;;;;5052883;28;20051;-62
2022/10/21 01:24:08;;;;;;;31.27;22.30;;;12.40;99.90;;;;;;5050989;28;20047;-63
2022/10/21 01:27:09;;;;;;;28.35;22.10;;;12.40;99.90;;;;;;5052438;28;20044;-63
2022/10/21 01:30:07;;;;;;;28.10;21.80;;;12.40;99.90;;;;;;5052688;28;20067;-63
2022/10/21 01:32:56;;;;;;;29.75;21.25;;;12.40;99.90;;;;;;5052422;28;20120;-64
2022/10/21 01:35:48;;;;;;;40.97;23.02;;;12.50;99.90;;;;;;5039691;28;20048;-64
2022/10/21 01:38:45;;;;;;;26.00;19.88;;;12.50;99.90;;;;;;5052127;28;20076;-63
2022/10/21 01:41:34;;;;;;;31.65;22.35;;;12.50;99.90;;;;;;5050402;28;20110;-62
2022/10/21 01:44:13;;;;;;;37.42;23.45;;;12.70;99.90;;;;;;5051721;28;20407;-63
2022/10/21 01:46:50;;;;;;;30.98;23.10;;;12.70;99.90;;;;;;5052435;28;20358;-63
2022/10/21 01:49:34;;;;;;;44.28;24.38;;;12.70;99.90;;;;;;5052072;28;20044;-63
2022/10/21 01:52:01;;;;;;;31.55;23.60;;;12.80;99.90;;;;;;5051644;28;20391;-62
2022/10/21 01:54:37;;;;;;;29.70;21.67;;;12.80;99.90;;;;;;5052052;28;20044;-63
2022/10/21 01:57:05;;;;;;;29.08;22.73;;;12.90;99.90;;;;;;5050905;28;20107;-62
2022/10/21 01:59:32;;;;;;;33.83;22.83;;;13.00;99.90;;;;;;5051059;28;20148;-63
2022/10/21 02:02:01;;;;;;;31.85;23.02;;;13.10;99.90;;;;;;5051540;28;20438;-63
2022/10/21 02:04:29;;;;;;;31.15;22.52;;;13.10;99.90;;;;;;5051969;28;20040;-62
2022/10/21 02:06:55;;;;;;;29.73;21.50;;;13.10;99.90;;;;;;5052236;28;20106;-61
2022/10/21 02:09:21;;;;;;;31.48;22.50;;;13.20;99.90;;;;;;5050958;28;20045;-62
2022/10/21 02:11:50;;;;;;;28.38;21.40;;;13.20;99.90;;;;;;5052052;28;20049;-63
2022/10/21 02:14:22;;;;;;;32.33;21.02;;;13.30;99.90;;;;;;5051814;28;20312;-62
2022/10/21 02:16:50;;;;;;;27.92;19.83;;;13.30;99.90;;;;;;5052115;28;20142;-62
2022/10/21 02:19:18;;;;;;;27.98;19.30;;;13.50;99.90;;;;;;5051312;28;20419;-62
2022/10/21 02:21:46;;;;;;;30.92;19.70;;;13.50;99.90;;;;;;5051739;28;20316;-61
2022/10/21 02:24:18;;;;;;;26.67;18.92;;;13.60;99.90;;;;;;5051385;28;20072;-62
2022/10/21 02:26:44;;;;;;;27.08;18.80;;;13.60;99.90;;;;;;5051696;28;20060;-61
2022/10/21 02:29:11;;;;;;;25.33;19.15;;;13.60;99.90;;;;;;5066908;28;20036;-62
2022/10/21 02:31:53;;;;;;;29.25;20.52;;;13.60;99.90;;;;;;5051731;28;20128;-61
2022/10/21 02:34:55;;;;;;;27.70;19.77;;;13.60;99.90;;;;;;5051679;28;20053;-63
2022/10/21 02:37:26;;;;;;;27.20;20.70;;;13.60;99.90;;;;;;5024603;28;20061;-61
2022/10/21 02:39:57;;;;;;;31.90;21.48;;;13.60;99.90;;;;;;5051246;28;20032;-62
2022/10/21 02:42:29;;;;;;;29.70;20.95;;;13.60;99.90;;;;;;5050643;28;20052;-61
2022/10/21 02:44:55;;;;;;;28.77;20.98;;;13.60;99.90;;;;;;5051031;28;20451;-60
2022/10/21 02:47:24;;;;;;;31.80;21.50;;;13.60;99.90;;;;;;5051287;28;20120;-60
2022/10/21 02:49:50;;;;;;;31.92;21.92;;;13.60;99.90;;;;;;5051260;28;20545;-60
2022/10/21 02:52:15;;;;;;;36.22;22.90;;;13.50;99.90;;;;;;5050169;28;20116;-61
2022/10/21 02:54:41;;;;;;;25.75;21.15;;;13.50;99.90;;;;;;5050684;28;20442;-60
2022/10/21 02:57:07;;;;;;;34.63;23.55;;;13.40;99.90;;;;;;5050438;28;20033;-61
2022/10/21 02:59:32;;;;;;;28.08;19.65;;;13.40;99.90;;;;;;5049956;28;20028;-61
2022/10/21 03:01:58;;;;;;;27.67;20.23;;;13.40;99.90;;;;;;5049781;28;20029;-62
2022/10/21 03:04:23;;;;;;;32.38;22.02;;;13.40;99.90;;;;;;5050169;28;20052;-62
2022/10/21 03:06:49;;;;;;;26.95;19.95;;;13.40;99.90;;;;;;5050412;28;20059;-61
2022/10/21 03:09:14;;;;;;;30.95;21.85;;;13.30;99.90;;;;;;5049289;28;20040;-61
2022/10/21 03:11:40;;;;;;;32.22;21.70;;;13.30;99.90;;;;;;5049083;28;20166;-61
2022/10/21 03:14:05;;;;;;;26.50;20.23;;;13.30;99.90;;;;;;5049540;28;20037;-61
2022/10/21 03:16:31;;;;;;;33.22;22.00;;;13.30;99.90;;;;;;5050639;28;20068;-60
2022/10/21 03:18:56;;;;;;;34.45;21.80;;;13.40;99.90;;;;;;5049996;28;20041;-60
2022/10/21 03:21:22;;;;;;;34.25;20.98;;;13.30;99.90;;;;;;5049595;28;20461;-61
2022/10/21 03:23:48;;;;;;;35.40;22.90;;;13.40;99.90;;;;;;5049587;28;20043;-61
2022/10/21 03:26:13;;;;;;;28.48;21.15;;;13.40;99.90;;;;;;5050418;28;20087;-61
2022/10/21 03:28:39;;;;;;;33.42;21.92;;;13.30;99.90;;;;;;5050546;28;20037;-62
2022/10/21 03:31:04;;;;;;;36.50;22.45;;;13.40;99.90;;;;;;5049242;28;20081;-61
2022/10/21 03:33:30;;;;;;;31.58;22.60;;;13.40;99.90;;;;;;5047908;28;20045;-61
2022/10/21 03:35:55;;;;;;;34.80;22.50;;;13.40;99.90;;;;;;5049487;28;20037;-61
2022/10/21 03:38:21;;;;;;;33.00;21.80;;;13.40;99.90;;;;;;5049149;28;20067;-61
2022/10/21 03:40:48;;;;;;;30.98;20.98;;;13.40;99.90;;;;;;5049069;28;20061;-61
2022/10/21 03:43:14;;;;;;;32.60;22.17;;;13.50;99.90;;;;;;5049167;28;20176;-61
2022/10/21 03:45:39;;;;;;;34.95;22.48;;;13.40;99.90;;;;;;5049554;28;20108;-61
2022/10/21 03:48:05;;;;;;;32.72;22.08;;;13.50;99.90;;;;;;5049621;28;20477;-60
2022/10/21 03:50:31;;;;;;;33.78;22.85;;;13.50;99.90;;;;;;5049680;28;20037;-61
2022/10/21 03:52:58;;;;;;;30.98;22.23;;;13.50;99.90;;;;;;5048784;28;20056;-62
2022/10/21 03:55:24;;;;;;;35.50;23.25;;;13.60;99.90;;;;;;5049529;28;20037;-64
2022/10/21 03:57:49;;;;;;;32.92;22.95;;;13.60;99.90;;;;;;5049697;28;20036;-61
2022/10/21 04:00:15;;;;;;;36.15;22.63;;;13.60;99.90;;;;;;5049695;28;20659;-61
2022/10/21 04:02:41;;;;;;;34.05;23.80;;;13.60;99.90;;;;;;5049636;28;20048;-61
2022/10/21 04:05:07;;;;;;;33.78;23.52;;;13.60;99.90;;;;;;5050142;28;20108;-61
2022/10/21 04:07:33;;;;;;;33.63;23.40;;;13.50;99.90;;;;;;5049111;28;20497;-61
2022/10/21 04:09:58;;;;;;;37.85;23.85;;;13.50;99.90;;;;;;5049515;28;20068;-62
2022/10/21 04:12:24;;;;;;;34.70;22.95;;;13.50;99.90;;;;;;5049635;28;20132;-61
2022/10/21 04:14:49;;;;;;;38.28;24.85;;;13.50;99.90;;;;;;5049611;28;20091;-62
2022/10/21 04:17:15;;;;;;;36.42;23.63;;;13.40;99.90;;;;;;5049583;28;20045;-61
2022/10/21 04:19:41;;;;;;;33.95;24.10;;;13.40;99.90;;;;;;5049306;28;20645;-61
2022/10/21 04:22:06;;;;;;;39.28;25.40;;;13.40;99.90;;;;;;5049232;28;20051;-61
2022/10/21 04:24:32;;;;;;;45.92;26.20;;;13.40;99.90;;;;;;5049657;28;20505;-61
2022/10/21 04:26:57;;;;;;;37.20;25.42;;;13.30;99.90;;;;;;5048414;28;20382;-61
2022/10/21 04:29:23;;;;;;;39.50;24.83;;;13.40;99.90;;;;;;5049176;28;20048;-61
2022/10/21 04:31:48;;;;;;;39.22;26.80;;;13.40;99.90;;;;;;5049167;28;20366;-61
2022/10/21 04:34:14;;;;;;;41.05;26.20;;;13.40;99.90;;;;;;5051914;28;20056;-61
2022/10/21 04:36:39;;;;;;;42.90;27.15;;;13.40;99.90;;;;;;5053573;28;20072;-62
2022/10/21 04:39:05;;;;;;;43.33;26.58;;;13.40;99.90;;;;;;5052865;28;20028;-61
2022/10/21 04:41:31;;;;;;;39.42;25.30;;;13.40;99.90;;;;;;5053206;28;20053;-62
2022/10/21 04:43:56;;;;;;;42.33;25.63;;;13.30;99.90;;;;;;5053268;28;20041;-62
2022/10/21 04:46:22;;;;;;;37.75;25.52;;;13.30;99.90;;;;;;5053448;28;20040;-61
2022/10/21 04:48:47;;;;;;;39.15;25.75;;;13.40;99.90;;;;;;5052830;28;20048;-61
2022/10/21 04:51:13;;;;;;;40.28;26.25;;;13.30;99.90;;;;;;5052718;28;20335;-61
2022/10/21 04:53:39;;;;;;;37.53;23.95;;;13.30;99.90;;;;;;5052984;28;20037;-61
2022/10/21 04:56:05;;;;;;;39.38;25.17;;;13.40;99.90;;;;;;5052868;28;20041;-61
2022/10/21 04:58:30;;;;;;;39.92;24.95;;;13.30;99.90;;;;;;5052915;28;20698;-62
2022/10/21 05:00:56;;;;;;;39.35;25.20;;;13.30;99.90;;;;;;5052549;28;20089;-62
2022/10/21 05:03:21;;;;;;;37.85;26.05;;;13.30;99.90;;;;;;5053062;28;20044;-61
2022/10/21 05:05:51;;;;;;;40.85;25.25;;;13.30;99.90;;;;;;5052807;28;20048;-60
2022/10/21 05:08:18;;;;;;;36.08;25.15;;;13.30;99.90;;;;;;5053175;28;20346;-61
2022/10/21 05:10:44;;;;;;;36.88;24.92;;;13.30;99.90;;;;;;5052655;28;20040;-61
2022/10/21 05:13:09;;;;;;;38.85;25.60;;;13.20;99.90;;;;;;5044332;28;20048;-61
2022/10/21 05:15:35;;;;;;;39.53;25.10;;;13.20;99.90;;;;;;5052558;28;20085;-62
2022/10/21 05:18:01;;;;;;;32.08;23.25;;;13.20;99.90;;;;;;5051635;28;20037;-62
2022/10/21 05:20:26;;;;;;;36.50;24.13;;;13.20;99.90;;;;;;5051638;28;20036;-61
2022/10/21 05:22:52;;;;;;;34.17;23.88;;;13.10;99.90;;;;;;5052400;28;20040;-61
2022/10/21 05:25:18;;;;;;;37.97;24.98;;;13.20;99.90;;;;;;5052598;28;20128;-62
2022/10/21 05:27:44;;;;;;;38.15;25.20;;;13.10;99.90;;;;;;5051298;28;20045;-62
2022/10/21 05:30:11;;;;;;;38.28;25.30;;;13.00;99.90;;;;;;5050344;28;20119;-63
2022/10/21 05:32:37;;;;;;;35.60;23.08;;;13.00;99.90;;;;;;5052235;28;20068;-61
2022/10/21 05:35:02;;;;;;;38.15;23.38;;;13.00;99.90;;;;;;5052351;28;20088;-61
2022/10/21 05:37:28;;;;;;;35.72;25.05;;;12.90;99.90;;;;;;5052333;28;20041;-64
2022/10/21 05:39:53;;;;;;;32.53;23.70;;;12.90;99.90;;;;;;5052141;28;20430;-62
2022/10/21 05:42:19;;;;;;;39.42;24.10;;;12.90;99.90;;;;;;5051654;28;20406;-62
2022/10/21 05:44:44;;;;;;;37.42;23.60;;;12.90;99.90;;;;;;5051639;28;20051;-60
2022/10/21 05:47:10;;;;;;;37.42;23.75;;;12.90;99.90;;;;;;5051585;28;20112;-60
2022/10/21 05:49:36;;;;;;;33.10;22.45;;;12.90;99.90;;;;;;5051945;28;20108;-63
2022/10/21 05:52:01;;;;;;;31.85;22.30;;;12.90;99.90;;;;;;5051408;28;20069;-63
2022/10/21 05:54:27;;;;;;;35.78;22.83;;;12.90;99.90;;;;;;5050704;28;20090;-63
2022/10/21 05:56:56;;;;;;;33.65;22.35;;;13.00;99.90;;;;;;5050186;28;20041;-61
2022/10/21 05:59:22;;;;;;;29.20;22.13;;;13.00;99.90;;;;;;5051485;28;20326;-61
2022/10/21 06:01:47;;;;;;;29.73;20.40;;;13.10;99.90;;;;;;5051859;28;20037;-60
2022/10/21 06:04:13;;;;;;;35.17;21.27;;;13.20;99.90;;;;;;5051328;28;20037;-61
2022/10/21 06:06:38;;;;;;;31.77;21.05;;;13.20;99.90;;;;;;5050974;28;20033;-60
2022/10/21 06:09:04;;;;;;;33.08;21.08;;;13.20;99.90;;;;;;5049513;28;20025;-60
2022/10/21 06:11:30;;;;;;;29.15;21.23;;;13.20;99.90;;;;;;5051765;28;20135;-61
2022/10/21 06:13:56;;;;;;;25.38;20.08;;;13.30;99.90;;;;;;5052164;28;20043;-62
2022/10/21 06:16:22;;;;;;;28.88;20.23;;;13.30;99.90;;;;;;5051046;28;20037;-62
2022/10/21 06:18:48;;;;;;;28.35;19.83;;;13.30;99.90;;;;;;5050588;28;20033;-62
2022/10/21 06:21:13;;;;;;;30.50;21.42;;;13.40;99.90;;;;;;5050581;28;20033;-62
2022/10/21 06:23:39;;;;;;;30.45;20.55;;;13.40;99.90;;;;;;5050855;28;20484;-61
2022/10/21 06:26:06;;;;;;;28.02;19.98;;;13.40;99.90;;;;;;5050692;28;20082;-61
2022/10/21 06:28:34;;;;;;;30.05;20.17;;;13.40;99.90;;;;;;5051457;28;20044;-63
2022/10/21 06:31:00;;;;;;;27.90;20.10;;;13.40;99.90;;;;;;5050036;28;20051;-63
2022/10/21 06:33:26;;;;;;;26.10;18.55;;;13.30;99.90;;;;;;5050977;28;20049;-61
2022/10/21 06:35:51;;;;;;;29.83;19.63;;;13.30;99.90;;;;;;5051375;28;20426;-61
2022/10/21 06:38:17;;;;;;;27.67;20.10;;;13.20;99.90;;;;;;5050721;28;20037;-61
2022/10/21 06:40:43;;;;;;;28.13;19.55;;;13.20;99.90;;;;;;5051080;28;20054;-62
2022/10/21 06:43:09;;;;;;;25.35;19.25;;;13.20;99.90;;;;;;5050935;28;20269;-62
2022/10/21 06:45:35;;;;;;;26.92;19.40;;;13.20;99.90;;;;;;5051211;28;20262;-61
2022/10/21 06:48:01;;;;;;;25.42;19.40;;;13.20;99.90;;;;;;5050891;28;20045;-61
2022/10/21 06:50:26;;;;;;;28.35;19.73;;;13.20;99.90;;;;;;5050773;28;20764;-62
2022/10/21 06:52:52;;;;;;;30.30;20.60;;;13.20;99.90;;;;;;5050832;28;20711;-62
2022/10/21 06:55:18;;;;;;;31.73;21.08;;;13.20;99.90;;;;;;5050944;28;20099;-63
2022/10/21 06:57:43;;;;;;;29.05;19.92;;;13.20;99.90;;;;;;5049489;28;20224;-61
2022/10/21 07:00:10;;;;;;;29.83;20.45;;;13.20;99.90;;;;;;5050808;28;20104;-62
2022/10/21 07:02:36;;;;;;;26.08;20.30;;;13.20;99.90;;;;;;5050966;28;20644;-62
2022/10/21 07:05:02;;;;;;;26.20;20.30;;;13.20;99.90;;;;;;5050875;28;20458;-63
2022/10/21 07:07:27;;;;;;;27.58;20.45;;;13.20;99.90;;;;;;5050409;28;20458;-63
2022/10/21 07:09:56;;;;;;;28.20;19.98;;;13.10;99.90;;;;;;5050742;28;20373;-62
2022/10/21 07:12:23;;;;;;;32.70;20.80;;;13.20;99.90;;;;;;5050695;28;20635;-61
2022/10/21 07:14:48;;;;;;;29.70;19.92;;;13.10;99.90;;;;;;5050298;28;20040;-62
2022/10/21 07:17:15;;;;;;;28.63;19.58;;;13.10;99.90;;;;;;5049752;28;20117;-62
2022/10/21 07:19:40;;;;;;;27.48;20.30;;;13.10;99.90;;;;;;5049452;28;20037;-61
2022/10/21 07:22:06;;;;;;;31.58;19.88;;;13.10;99.90;;;;;;5049333;28;20040;-61
2022/10/21 07:24:32;;;;;;;28.30;19.90;;;13.10;99.90;;;;;;5049441;28;20067;-61
2022/10/21 07:26:57;;;;;;;27.75;20.40;;;13.20;99.90;;;;;;5049542;28;20041;-61
2022/10/21 07:29:23;;;;;;;25.35;19.40;;;13.20;99.90;;;;;;5048940;28;20040;-61
2022/10/21 07:31:48;;;;;;;28.40;19.10;;;13.20;99.90;;;;;;5049193;28;20085;-61
2022/10/21 07:34:14;;;;;;;28.88;19.48;;;13.20;99.90;;;;;;5049360;28;20358;-61
2022/10/21 07:36:47;;;;;;;28.55;19.80;;;13.20;99.90;;;;;;5048910;28;20449;-61
2022/10/21 07:39:15;;;;;;;32.17;19.95;;;13.30;99.90;;;;;;5047908;28;20130;-62
2022/10/21 07:41:44;;;;;;;27.52;20.00;;;13.30;99.90;;;;;;5046700;28;20124;-64
2022/10/21 07:44:10;;;;;;;24.60;18.77;;;13.30;99.90;;;;;;5048530;28;20462;-62
2022/10/21 07:46:38;;;;;;;29.88;19.90;;;13.40;99.90;;;;;;5048182;28;20064;-61
2022/10/21 07:49:04;;;;;;;26.02;19.05;;;13.50;99.90;;;;;;5047944;28;20366;-62
2022/10/21 07:51:29;;;;;;;25.63;18.60;;;13.50;99.90;;;;;;5047068;28;20622;-63
2022/10/21 07:53:56;;;;;;;29.85;19.02;;;13.60;99.90;;;;;;5048716;28;20446;-62
2022/10/21 07:56:30;;;;;;;23.77;18.02;;;13.70;99.90;;;;;;5049128;28;20040;-62
2022/10/21 07:58:56;;;;;;;24.02;18.55;;;13.80;99.90;;;;;;5048750;28;20041;-61
2022/10/21 08:01:22;;;;;;;22.80;17.85;;;13.80;99.90;;;;;;5048701;28;20044;-63
2022/10/21 08:03:48;;;;;;;22.17;17.33;;;13.90;99.90;;;;;;5048760;28;20041;-62
2022/10/21 08:06:16;;;;;;;24.60;17.60;;;14.00;99.90;;;;;;5048812;28;20358;-63
2022/10/21 08:08:42;;;;;;;21.73;17.20;;;14.10;99.90;;;;;;5047686;28;20112;-61
2022/10/21 08:11:08;;;;;;;20.92;16.98;;;14.20;99.90;;;;;;5047964;28;20127;-60
2022/10/21 08:13:34;;;;;;;22.40;17.58;;;14.30;99.90;;;;;;5049099;28;20124;-63
2022/10/21 08:16:00;;;;;;;23.58;16.67;;;14.40;99.90;;;;;;5048821;28;20125;-64
2022/10/21 08:18:26;;;;;;;21.45;15.63;;;14.60;99.90;;;;;;5048778;28;20144;-62
2022/10/21 08:20:53;;;;;;;19.02;16.25;;;14.70;99.90;;;;;;5048739;28;20041;-61
2022/10/21 08:23:21;;;;;;;20.83;16.02;;;14.80;99.90;;;;;;5048488;28;20421;-62
2022/10/21 08:25:48;;;;;;;18.17;14.30;;;14.80;99.90;;;;;;5048857;28;20053;-62
2022/10/21 08:28:15;;;;;;;17.30;14.45;;;14.90;99.90;;;;;;5048499;28;20159;-62
2022/10/21 08:30:41;;;;;;;20.02;15.10;;;14.90;99.90;;;;;;5048826;28;20052;-62
2022/10/21 08:33:07;;;;;;;19.65;15.00;;;14.90;99.90;;;;;;5048506;28;20048;-62
2022/10/21 08:35:32;;;;;;;20.48;14.30;;;15.00;99.90;;;;;;5048490;28;20045;-63
2022/10/21 08:37:58;;;;;;;21.20;15.15;;;15.00;99.90;;;;;;5048219;28;20040;-64
2022/10/21 08:40:24;;;;;;;16.63;13.50;;;15.00;99.90;;;;;;5048249;28;20037;-62
2022/10/21 08:42:51;;;;;;;18.25;14.18;;;15.00;99.90;;;;;;5042267;28;165394;-62
2022/10/21 08:45:49;;;;;;;19.20;13.95;;;15.10;99.90;;;;;;5046625;28;20045;-62
2022/10/21 08:48:20;;;;;;;17.50;12.98;;;15.10;99.90;;;;;;5036599;28;20505;-62
2022/10/21 08:50:49;;;;;;;15.63;13.23;;;15.20;99.90;;;;;;5049338;28;20044;-61
2022/10/21 08:53:28;;;;;;;17.40;12.98;;;15.30;99.90;;;;;;5048515;28;20044;-61
2022/10/21 08:56:01;;;;;;;17.33;12.88;;;15.30;99.90;;;;;;5047277;28;20033;-61
2022/10/21 08:58:27;;;;;;;17.05;12.48;;;15.40;99.90;;;;;;5048684;28;20037;-61
2022/10/21 09:01:01;;;;;;;17.20;11.63;;;15.40;99.90;;;;;;5048673;28;20045;-62
2022/10/21 09:03:32;;;;;;;19.63;12.02;;;15.40;99.90;;;;;;5049057;28;20040;-61
2022/10/21 09:06:37;;;;;;;15.45;12.38;;;15.50;99.90;;;;;;5049342;28;20040;-62
2022/10/21 09:09:29;;;;;;;14.50;12.23;;;15.50;99.90;;;;;;5043459;28;20048;-62
2022/10/21 09:12:15;;;;;;;16.80;12.18;;;15.50;99.90;;;;;;5047770;28;20032;-60
2022/10/21 09:15:10;;;;;;;14.70;11.63;;;15.60;99.90;;;;;;5049388;28;20048;-60
2022/10/21 09:18:12;;;;;;;17.10;11.40;;;15.60;99.90;;;;;;5043467;28;20041;-60
2022/10/21 09:20:54;;;;;;;15.80;10.63;;;15.70;99.90;;;;;;5044225;28;20485;-61
2022/10/21 09:23:41;;;;;;;14.65;10.70;;;15.80;99.90;;;;;;5052342;28;20488;-62
2022/10/21 09:26:18;;;;;;;15.93;11.18;;;15.90;99.90;;;;;;5052634;28;20044;-62
2022/10/21 09:28:46;;;;;;;15.25;10.98;;;15.90;99.90;;;;;;5052361;28;20261;-61
2022/10/21 09:31:18;;;;;;;14.57;11.20;;;15.90;99.90;;;;;;5052338;28;20049;-62
2022/10/21 09:33:52;;;;;;;14.68;9.88;;;16.00;99.90;;;;;;5052454;28;20045;-60
2022/10/21 09:36:35;;;;;;;13.63;9.90;;;15.90;99.90;;;;;;5052543;28;20041;-62
2022/10/21 09:39:10;;;;;;;15.15;10.23;;;16.00;99.90;;;;;;5052206;28;20509;-61
2022/10/21 09:41:42;;;;;;;14.18;10.32;;;16.00;99.90;;;;;;5051873;28;20500;-61
2022/10/21 09:44:21;;;;;;;13.27;10.40;;;16.00;99.90;;;;;;5052267;28;20034;-61
2022/10/21 09:46:48;;;;;;;13.88;9.45;;;16.10;99.90;;;;;;5051920;28;20045;-61
2022/10/21 09:49:28;;;;;;;13.20;9.23;;;16.10;99.90;;;;;;5051785;28;20461;-62
2022/10/21 09:51:57;;;;;;;17.58;9.63;;;16.10;99.90;;;;;;5051514;28;20449;-62
2022/10/21 09:54:25;;;;;;;13.10;9.68;;;16.10;99.90;;;;;;5051697;28;20052;-63
2022/10/21 09:57:29;;;;;;;18.77;10.38;;;16.20;99.90;;;;;;5051305;28;20080;-63
2022/10/21 09:59:59;;;;;;;13.43;9.15;;;16.20;99.90;;;;;;5051366;28;20033;-62
2022/10/21 10:02:31;;;;;;;14.18;9.40;;;16.20;99.90;;;;;;5051304;28;20414;-62
2022/10/21 10:04:57;;;;;;;13.50;8.68;;;16.30;99.90;;;;;;5051801;28;20048;-62
2022/10/21 10:07:35;;;;;;;13.27;9.13;;;16.30;99.90;;;;;;5051540;28;20422;-62
2022/10/21 10:10:23;;;;;;;12.95;9.30;;;16.40;99.90;;;;;;5051929;28;20040;-62
2022/10/21 10:12:56;;;;;;;13.10;9.25;;;16.40;99.90;;;;;;5048499;28;20037;-62
2022/10/21 10:15:31;;;;;;;11.98;9.85;;;16.50;99.90;;;;;;5052026;28;20071;-62
2022/10/21 10:17:57;;;;;;;15.50;10.05;;;16.50;99.90;;;;;;5051436;28;20083;-63
2022/10/21 10:20:23;;;;;;;13.25;9.82;;;16.50;99.90;;;;;;5051630;28;20394;-63
2022/10/21 10:22:57;;;;;;;10.95;9.48;;;16.50;99.90;;;;;;5050214;28;20045;-63
2022/10/21 10:25:27;;;;;;;12.93;9.32;;;16.60;99.90;;;;;;5049141;28;20464;-62
2022/10/21 10:28:02;;;;;;;18.23;9.45;;;16.60;99.90;;;;;;5046110;28;20095;-62
2022/10/21 10:30:40;;;;;;;11.18;8.15;;;16.60;99.90;;;;;;5050472;28;20037;-63
2022/10/21 10:33:19;;;;;;;13.00;7.85;;;16.70;99.90;;;;;;5051135;28;20365;-62
2022/10/21 10:35:54;;;;;;;12.18;8.05;;;16.70;99.90;;;;;;5049069;28;20051;-63
2022/10/21 10:38:27;;;;;;;12.23;7.68;;;16.70;99.90;;;;;;5050030;28;20419;-62
2022/10/21 10:40:53;;;;;;;10.83;8.17;;;16.80;99.90;;;;;;5044286;28;20335;-62
2022/10/21 10:43:26;;;;;;;12.57;7.90;;;16.80;99.90;;;;;;5050802;28;20064;-62
2022/10/21 10:45:56;;;;;;;11.35;8.25;;;16.80;99.90;;;;;;5050673;28;20171;-62
2022/10/21 10:48:40;;;;;;;11.30;8.07;;;16.80;99.90;;;;;;5050430;28;20055;-63
2022/10/21 10:51:23;;;;;;;12.15;7.65;;;16.90;99.90;;;;;;5050444;28;20041;-63
2022/10/21 10:54:26;;;;;;;12.88;7.68;;;16.90;99.90;;;;;;5050259;28;20041;-64
2022/10/21 10:57:22;;;;;;;11.15;8.05;;;16.90;99.90;;;;;;5049855;28;20364;-63
2022/10/21 11:00:02;;;;;;;11.27;7.85;;;17.00;99.90;;;;;;5048277;28;20033;-65
2022/10/21 11:02:42;;;;;;;13.43;8.18;;;17.00;99.90;;;;;;5049885;28;20064;-65
2022/10/21 11:05:17;;;;;;;12.75;7.18;;;17.10;99.90;;;;;;5049929;28;20170;-64
2022/10/21 11:08:13;;;;;;;11.32;8.32;;;17.10;99.90;;;;;;5049787;28;20116;-64
2022/10/21 11:10:45;;;;;;;12.65;7.72;;;17.10;99.90;;;;;;5048804;28;20415;-63
2022/10/21 11:13:14;;;;;;;10.55;7.38;;;17.10;99.90;;;;;;5048448;28;20442;-63
2022/10/21 11:16:11;;;;;;;9.98;7.07;;;17.10;99.90;;;;;;5049455;28;20037;-64
2022/10/21 11:18:38;;;;;;;11.27;7.32;;;17.10;99.90;;;;;;5048015;28;20095;-65
2022/10/21 11:21:30;;;;;;;13.18;7.38;;;17.10;99.90;;;;;;5048912;28;20067;-64
2022/10/21 11:24:14;;;;;;;10.32;7.32;;;17.10;99.90;;;;;;5048236;28;20033;-68
2022/10/21 11:26:51;;;;;;;13.80;7.72;;;17.10;99.90;;;;;;5048410;28;20041;-64
2022/10/21 11:30:05;;;;;;;12.35;7.30;;;17.20;99.90;;;;;;5048921;28;20045;-64
2022/10/21 11:32:46;;;;;;;15.57;7.55;;;17.20;99.90;;;;;;5039872;28;20128;-64
2022/10/21 11:35:16;;;;;;;10.98;7.28;;;17.20;99.90;;;;;;5049139;28;20088;-63
2022/10/21 11:38:15;;;;;;;11.35;7.38;;;17.20;99.90;;;;;;5048878;28;20052;-63
2022/10/21 11:40:47;;;;;;;9.00;6.85;;;17.20;99.90;;;;;;5047718;28;20072;-65
2022/10/21 11:43:38;;;;;;;9.55;7.13;;;17.20;99.90;;;;;;5048432;28;20053;-63
2022/10/21 11:46:15;;;;;;;13.32;7.63;;;17.30;99.90;;;;;;5047199;28;20060;-63
2022/10/21 11:48:48;;;;;;;11.30;6.70;;;17.30;99.90;;;;;;5049135;28;20069;-65
2022/10/21 11:51:36;;;;;;;15.15;7.10;;;17.30;99.90;;;;;;5048967;28;20124;-64
2022/10/21 11:54:20;;;;;;;10.45;7.18;;;17.30;99.90;;;;;;5050015;28;20052;-63
2022/10/21 11:57:12;;;;;;;10.90;6.80;;;17.30;99.90;;;;;;5040488;28;20037;-62
2022/10/21 11:59:50;;;;;;;13.15;7.32;;;17.30;99.90;;;;;;5046760;28;20045;-63
2022/10/21 12:02:18;;;;;;;15.27;8.32;;;17.30;99.90;;;;;;5049879;28;20090;-63
2022/10/21 12:04:50;;;;;;;10.82;7.43;;;17.40;99.90;;;;;;5031573;28;20040;-63
2022/10/21 12:07:21;;;;;;;10.13;7.53;;;17.30;99.90;;;;;;5049497;28;20469;-63
2022/10/21 12:10:00;;;;;;;11.80;7.13;;;17.30;99.90;;;;;;5049811;28;20063;-63
2022/10/21 12:12:32;;;;;;;11.48;7.38;;;17.40;99.90;;;;;;5050160;28;20094;-63
2022/10/21 12:15:01;;;;;;;12.70;7.68;;;17.30;99.90;;;;;;5046587;28;20033;-66
2022/10/21 12:17:31;;;;;;;11.07;7.60;;;17.30;99.90;;;;;;5049612;28;20120;-63
2022/10/21 12:20:01;;;;;;;11.18;7.07;;;17.30;99.90;;;;;;5049572;28;20041;-64
2022/10/21 12:22:29;;;;;;;13.77;7.50;;;17.30;99.90;;;;;;5048578;28;20331;-63
2022/10/21 12:25:11;;;;;;;16.25;7.55;;;17.30;99.90;;;;;;5049402;28;20033;-63
2022/10/21 12:27:46;;;;;;;10.40;7.50;;;17.30;99.90;;;;;;5049918;28;20367;-65
2022/10/21 12:30:19;;;;;;;11.18;7.55;;;17.30;99.90;;;;;;5045866;28;20229;-64
2022/10/21 12:33:01;;;;;;;11.32;7.43;;;17.40;99.90;;;;;;5049646;28;20454;-62
2022/10/21 12:35:45;;;;;;;12.10;6.82;;;17.30;99.90;;;;;;5047290;28;20131;-64
2022/10/21 12:38:50;;;;;;;13.15;7.05;;;17.40;99.90;;;;;;5047908;28;20048;-62
2022/10/21 12:41:23;;;;;;;11.18;6.88;;;17.40;99.90;;;;;;5044925;28;20041;-62
2022/10/21 12:44:06;;;;;;;12.73;7.53;;;17.50;99.90;;;;;;5048462;28;20355;-62
2022/10/21 12:46:46;;;;;;;10.98;7.38;;;17.60;99.90;;;;;;5049389;28;20047;-63
2022/10/21 12:49:23;;;;;;;10.85;6.63;;;17.60;99.90;;;;;;5049506;28;20060;-61